AVA3 KMIA-SKBQ
Flight info
| Callsign | AVA3 |
|---|---|
| Flight time | N/A |
| Altitude | 37000 |
| Route | GWAVA2 URSUS UP406 BILSI UL795 LENAX UL417 NEFTU UP525 MORGI MORGI1B |
| Aircraft | A320/M-SDE3FGHIRWY/LB1 |
Departure
| Time | N/A |
|---|---|
| Airport | Miami International Airport (KMIA) |
Arrival
| Time | 2026-05-07 03:19 |
|---|---|
| Airport | Ernesto Cortissoz International Airport (SKBQ) |
| Time | Latitude | Longitude | Altitude | Speed | Heading |
|---|---|---|---|---|---|
| 2026-05-07 03:04 | 11.80635 | -75.12637 | 24071 ft | 458 kts | 153° |
| 2026-05-07 03:04 | 11.77630 | -75.11433 | 23074 ft | 465 kts | 159° |
| 2026-05-07 03:04 | 11.74545 | -75.10540 | 22432 ft | 460 kts | 165° |
| 2026-05-07 03:05 | 11.71468 | -75.09810 | 21820 ft | 454 kts | 166° |
| 2026-05-07 03:05 | 11.68400 | -75.09108 | 21232 ft | 448 kts | 163° |
| 2026-05-07 03:05 | 11.65374 | -75.08444 | 20657 ft | 443 kts | 169° |
| 2026-05-07 03:05 | 11.62322 | -75.08099 | 20111 ft | 438 kts | 171° |
| 2026-05-07 03:06 | 11.59320 | -75.07759 | 19571 ft | 432 kts | 172° |
| 2026-05-07 03:06 | 11.56351 | -75.07397 | 19034 ft | 426 kts | 172° |
| 2026-05-07 03:06 | 11.53429 | -75.07034 | 18504 ft | 421 kts | 171° |
| 2026-05-07 03:06 | 11.50536 | -75.06675 | 17913 ft | 416 kts | 171° |
| 2026-05-07 03:07 | 11.47679 | -75.06329 | 17345 ft | 410 kts | 171° |
| 2026-05-07 03:07 | 11.44862 | -75.05997 | 16790 ft | 405 kts | 171° |
| 2026-05-07 03:07 | 11.42080 | -75.05673 | 16231 ft | 401 kts | 170° |
| 2026-05-07 03:07 | 11.39316 | -75.05353 | 15756 ft | 395 kts | 170° |
| 2026-05-07 03:08 | 11.36602 | -75.05039 | 15211 ft | 392 kts | 171° |
| 2026-05-07 03:08 | 11.33892 | -75.04724 | 14647 ft | 390 kts | 170° |
| 2026-05-07 03:08 | 11.31191 | -75.04410 | 14076 ft | 389 kts | 170° |
| 2026-05-07 03:08 | 11.28510 | -75.04099 | 13467 ft | 387 kts | 171° |
| 2026-05-07 03:09 | 11.25835 | -75.03789 | 12879 ft | 385 kts | 172° |
| 2026-05-07 03:09 | 11.23180 | -75.03479 | 12296 ft | 383 kts | 172° |
| 2026-05-07 03:09 | 11.20545 | -75.03169 | 11710 ft | 380 kts | 172° |
| 2026-05-07 03:09 | 11.17925 | -75.02863 | 11111 ft | 378 kts | 172° |
| 2026-05-07 03:10 | 11.15324 | -75.02560 | 10621 ft | 373 kts | 172° |
| 2026-05-07 03:10 | 11.12840 | -75.02275 | 10494 ft | 356 kts | 173° |
| 2026-05-07 03:10 | 11.10433 | -75.02002 | 10385 ft | 341 kts | 172° |
| 2026-05-07 03:10 | 11.08123 | -75.01740 | 10270 ft | 327 kts | 172° |
| 2026-05-07 03:11 | 11.05905 | -75.01483 | 10154 ft | 314 kts | 172° |
| 2026-05-07 03:11 | 11.03772 | -75.01235 | 9994 ft | 304 kts | 173° |
| 2026-05-07 03:11 | 11.01673 | -75.00990 | 9508 ft | 306 kts | 172° |
| 2026-05-07 03:11 | 10.99589 | -75.00749 | 9214 ft | 301 kts | 173° |
| 2026-05-07 03:12 | 10.97519 | -75.00508 | 8808 ft | 299 kts | 173° |
| 2026-05-07 03:12 | 10.95449 | -75.00267 | 8399 ft | 297 kts | 173° |
| 2026-05-07 03:12 | 10.93405 | -75.00028 | 7983 ft | 296 kts | 173° |
| 2026-05-07 03:12 | 10.91360 | -74.99789 | 7608 ft | 293 kts | 172° |
| 2026-05-07 03:13 | 10.89352 | -74.99554 | 7239 ft | 289 kts | 172° |
| 2026-05-07 03:13 | 10.87357 | -74.99321 | 6844 ft | 288 kts | 172° |
| 2026-05-07 03:13 | 10.85379 | -74.99093 | 6457 ft | 286 kts | 172° |
| 2026-05-07 03:13 | 10.83405 | -74.98867 | 6040 ft | 284 kts | 172° |
| 2026-05-07 03:14 | 10.81461 | -74.98459 | 5344 ft | 290 kts | 158° |
| 2026-05-07 03:14 | 10.79719 | -74.97395 | 4603 ft | 297 kts | 137° |
| 2026-05-07 03:14 | 10.77028 | -74.94250 | 3887 ft | 283 kts | 130° |
| 2026-05-07 03:15 | 10.75797 | -74.92782 | 3755 ft | 269 kts | 129° |
| 2026-05-07 03:15 | 10.74959 | -74.91167 | 3634 ft | 254 kts | 98° |
| 2026-05-07 03:15 | 10.75179 | -74.89451 | 3363 ft | 247 kts | 62° |
| 2026-05-07 03:15 | 10.76260 | -74.88124 | 3025 ft | 244 kts | 40° |
| 2026-05-07 03:16 | 10.77603 | -74.87079 | 2689 ft | 242 kts | 34° |
| 2026-05-07 03:16 | 10.78947 | -74.86136 | 2347 ft | 224 kts | 34° |
| 2026-05-07 03:16 | 10.80165 | -74.85262 | 2071 ft | 205 kts | 35° |
| 2026-05-07 03:16 | 10.81288 | -74.84417 | 2001 ft | 197 kts | 36° |
| 2026-05-07 03:17 | 10.82369 | -74.83579 | 2002 ft | 195 kts | 35° |
| 2026-05-07 03:17 | 10.83441 | -74.82767 | 2006 ft | 189 kts | 37° |
| 2026-05-07 03:17 | 10.84448 | -74.81946 | 1536 ft | 185 kts | 38° |
| 2026-05-07 03:17 | 10.85378 | -74.81144 | 1166 ft | 169 kts | 39° |
| 2026-05-07 03:18 | 10.86254 | -74.80394 | 787 ft | 160 kts | 38° |
| 2026-05-07 03:18 | 10.87093 | -74.79687 | 424 ft | 153 kts | 37° |
| 2026-05-07 03:18 | 10.87885 | -74.79020 | 167 ft | 142 kts | 38° |
| 2026-05-07 03:18 | 10.88583 | -74.78418 | 101 ft | 116 kts | 39° |
| 2026-05-07 03:19 | 10.89048 | -74.78017 | 94 ft | 60 kts | 40° |
| 2026-05-07 03:19 | 10.89257 | -74.77837 | 92 ft | 30 kts | 40° |
| 2026-05-07 03:19 | 10.89368 | -74.77716 | 89 ft | 19 kts | 71° |
| 2026-05-07 03:19 | 10.89371 | -74.77585 | 84 ft | 18 kts | 111° |
| 2026-05-07 03:20 | 10.89295 | -74.77535 | 84 ft | 11 kts | 165° |
| 2026-05-07 03:20 | 10.89234 | -74.77514 | 86 ft | 7 kts | 160° |
| 2026-05-07 03:20 | 10.89195 | -74.77500 | 89 ft | 7 kts | 160° |
| 2026-05-07 03:20 | 10.89114 | -74.77505 | 93 ft | 16 kts | 213° |
| 2026-05-07 03:21 | 10.89034 | -74.77568 | 99 ft | 14 kts | 220° |
| 2026-05-07 03:21 | 10.88953 | -74.77638 | 97 ft | 17 kts | 220° |
| 2026-05-07 03:21 | 10.88867 | -74.77713 | 96 ft | 13 kts | 220° |
| 2026-05-07 03:21 | 10.88806 | -74.77766 | 96 ft | 14 kts | 220° |
| 2026-05-07 03:22 | 10.88763 | -74.77803 | 96 ft | 4 kts | 219° |
| 2026-05-07 03:22 | 10.88762 | -74.77803 | 96 ft | 0 kts | 219° |
| 2026-05-07 03:22 | 10.88761 | -74.77804 | 96 ft | 0 kts | 219° |
| 2026-05-07 03:27 | 10.88739 | -74.77822 | 97 ft | 16 kts | 218° |
| 2026-05-07 03:27 | 10.88645 | -74.77876 | 99 ft | 16 kts | 200° |
| 2026-05-07 03:27 | 10.88563 | -74.77918 | 96 ft | 9 kts | 288° |
| 2026-05-07 03:27 | 10.88567 | -74.77969 | 98 ft | 8 kts | 225° |
| 2026-05-07 03:28 | 10.88488 | -74.78038 | 97 ft | 16 kts | 219° |
| 2026-05-07 03:28 | 10.88439 | -74.78081 | 97 ft | 4 kts | 232° |
| 2026-05-07 03:28 | 10.88421 | -74.78150 | 98 ft | 5 kts | 278° |
| 2026-05-07 03:28 | 10.88435 | -74.78228 | 98 ft | 13 kts | 285° |
| 2026-05-07 03:29 | 10.88482 | -74.78248 | 98 ft | 13 kts | 232° |
| 2026-05-07 03:29 | 10.88458 | -74.78273 | 98 ft | 11 kts | 204° |
| 2026-05-07 03:29 | 10.88526 | -74.78212 | 98 ft | 16 kts | 40° |
| 2026-05-07 03:29 | 10.88609 | -74.78141 | 98 ft | 16 kts | 40° |
| 2026-05-07 03:30 | 10.88692 | -74.78070 | 97 ft | 16 kts | 40° |
| 2026-05-07 03:30 | 10.88775 | -74.78000 | 98 ft | 12 kts | 40° |
| 2026-05-07 03:30 | 10.88851 | -74.77948 | 97 ft | 16 kts | 25° |
| 2026-05-07 03:30 | 10.88855 | -74.77885 | 96 ft | 16 kts | 130° |
| 2026-05-07 03:31 | 10.88802 | -74.77821 | 96 ft | 7 kts | 130° |
| 2026-05-07 03:31 | 10.88771 | -74.77785 | 96 ft | 7 kts | 132° |
| 2026-05-07 03:31 | 10.88740 | -74.77751 | 96 ft | 3 kts | 131° |
| 2026-05-07 03:31 | 10.88724 | -74.77731 | 96 ft | 0 kts | 130° |